• Join FlightAware (Why Join?)
  • Login
  • US Flag 
11:48PM EDT


 

Airport Tracker/Info


-or-


 

Live Flight TrackerFlight Track Log ✈ N71AA ✈ 08-Aug-2013 ✈ KBFI - PAKT / KTN

Flight Track Log - Related Links

Times and Time Zones

All times are in EDT time to prevent confusion due to time zone crossing. See the N71AA flight status page for this flight to view local times or setup timezone preferences in your user account.

Time Position Orientation Groundspeed Altitude Reporting Facility
EDT Latitude Longitude Course Direction KTS MPH feet Rate Location/Type
05:02PM 47.5111 -122.2850 154° Southeast 155 178 1,100  Level Seattle Center
05:03PM 47.4619 -122.2497 154° Southeast 176 203 3,700 1,860 Climbing Seattle Center
05:04PM 47.4139 -122.2172 155° Southeast 194 223 5,300 1,380 Climbing Seattle Center
05:05PM 47.3456 -122.2028 172° South 237 273 6,600 840 Climbing Seattle Center
05:06PM 47.2858 -122.2389 202° Southwest 261 300 7,100 180 Climbing Seattle Center
05:07PM 47.2456 -122.3428 240° Southwest 279 321 7,000 -60 Descending Seattle Center
05:08PM 47.2456 -122.4472 270° West 268 308 7,000  Level Seattle Center
05:09PM 47.2861 -122.5294 306° West 246 283 7,000 540 Level Seattle Center
05:10PM 47.3339 -122.6044 313° West 223 257 8,100 1,200 Climbing Seattle Center
05:12PM 47.3942 -122.6969 314° West 229 264 9,900 1,200 Climbing Seattle Center
05:13PM 47.4386 -122.7661 314° West 232 267 11,100 1,320 Climbing Seattle Center
05:14PM 47.4811 -122.8347 313° West 227 261 12,700 1,500 Climbing Seattle Center
05:15PM 47.5214 -122.8989 313° West 217 250 14,200 1,320 Climbing Seattle Center
05:16PM 47.5625 -122.9644 313° West 217 250 15,500 1,260 Climbing Seattle Center
05:17PM 47.6042 -123.0303 313° West 223 257 16,800 1,200 Climbing Seattle Center
05:18PM 47.6450 -123.0967 312° West 220 253 18,000 1,140 Climbing Seattle Center
05:19PM 47.6864 -123.1633 313° West 221 254 19,200 1,080 Climbing Seattle Center
05:20PM 47.7286 -123.2317 313° West 226 260 20,300 1,020 Climbing Seattle Center
05:21PM 47.7806 -123.3147 313° West 230 265 21,300 780 Climbing Seattle Center
05:22PM 47.8250 -123.3861 313° West 236 272 22,000 300 Climbing Seattle Center
05:23PM 47.8731 -123.4639 313° West 250 288 22,000  Level Seattle Center
05:24PM 47.9369 -123.5272 326° Northwest 274 315 22,000  Level Seattle Center
05:25PM 48.0017 -123.5897 327° Northwest 280 322 22,000  Level Seattle Center
05:26PM 48.0675 -123.6528 327° Northwest 281 323 22,000  Level Seattle Center
05:27PM 48.1336 -123.7128 329° Northwest 279 321 22,000  Level Seattle Center
05:28PM 48.1986 -123.7753 327° Northwest 280 322 22,000  Level Seattle Center
05:29PM 48.2642 -123.8356 329° Northwest 278 320 22,000  Level Seattle Center
05:31PM 48.3833 -123.9833 321° Northwest 280 322 22,100  Climbing Vancouver Center
05:32PM 48.4500 -124.0333 334° Northwest 270 311 22,100 -60 Level Vancouver Center
05:33PM 48.5167 -124.1000 326° Northwest 280 322 22,000 -60 Descending Vancouver Center
05:34PM 48.5833 -124.1500 334° Northwest 280 322 22,000  Level Vancouver Center
05:35PM 48.6500 -124.2333 320° Northwest 270 311 22,000  Level Vancouver Center
05:36PM 48.7000 -124.2833 327° Northwest 270 311 22,000  Level Vancouver Center
05:37PM 48.7667 -124.3333 334° Northwest 270 311 22,000  Level Vancouver Center
05:38PM 48.8333 -124.4000 327° Northwest 270 311 22,100  Climbing Vancouver Center
05:39PM 48.9000 -124.4667 327° Northwest 270 311 22,100  Level Vancouver Center
05:40PM 48.9667 -124.5333 327° Northwest 270 311 22,100  Level Vancouver Center
05:41PM 49.0333 -124.5833 334° Northwest 270 311 22,100  Level Vancouver Center
05:42PM 49.0833 -124.6667 313° West 270 311 22,100  Level Vancouver Center
05:43PM 49.1500 -124.7167 334° Northwest 270 311 22,100  Level Vancouver Center
05:44PM 49.2167 -124.8000 321° Northwest 270 311 22,100  Level Vancouver Center
05:45PM 49.2833 -124.8500 334° Northwest 270 311 22,100  Level Vancouver Center
05:46PM 49.3500 -124.9000 334° Northwest 270 311 22,100  Level Vancouver Center
05:47PM 49.4167 -124.9833 321° Northwest 270 311 22,100  Level Vancouver Center
05:48PM 49.4833 -125.0333 334° Northwest 270 311 22,100 -60 Level Vancouver Center
05:49PM 49.5333 -125.1167 313° West 270 311 22,000 -60 Descending Vancouver Center
05:50PM 49.6000 -125.1667 334° Northwest 270 311 22,000  Level Vancouver Center
05:51PM 49.6667 -125.2167 334° Northwest 270 311 22,000  Level Vancouver Center
05:52PM 49.7167 -125.3000 313° West 260 299 22,000  Level Vancouver Center
05:53PM 49.7833 -125.3500 334° Northwest 270 311 22,000  Level Vancouver Center
05:54PM 49.8500 -125.4333 321° Northwest 260 299 22,000  Level Vancouver Center
05:55PM 49.9167 -125.4833 334° Northwest 260 299 22,000  Level Vancouver Center
05:56PM 49.9667 -125.5333 327° Northwest 270 311 22,000  Level Vancouver Center
05:57PM 50.0333 -125.6167 321° Northwest 260 299 22,000  Level Vancouver Center
05:58PM 50.1000 -125.6667 334° Northwest 270 311 22,000  Level Vancouver Center
05:59PM 50.1500 -125.7333 320° Northwest 270 311 22,000  Level Vancouver Center
06:00PM 50.2167 -125.8000 327° Northwest 270 311 22,000  Level Vancouver Center
06:01PM 50.2667 -125.8667 320° Northwest 270 311 22,000  Level Vancouver Center
06:02PM 50.3333 -125.9500 321° Northwest 270 311 22,000  Level Vancouver Center
06:03PM 50.4000 -126.0000 334° Northwest 270 311 22,000  Level Vancouver Center
06:04PM 50.4667 -126.0500 334° Northwest 270 311 22,000  Level Vancouver Center
06:05PM 50.5167 -126.1333 313° West 270 311 22,000  Level Vancouver Center
06:06PM 50.5833 -126.1833 335° Northwest 270 311 22,000  Level Vancouver Center
06:07PM 50.6500 -126.2500 328° Northwest 270 311 22,000  Level Vancouver Center
06:08PM 50.7167 -126.3333 322° Northwest 270 311 22,000  Level Vancouver Center
06:09PM 50.7833 -126.3833 335° Northwest 270 311 22,000  Level Vancouver Center
06:10PM 50.8500 -126.4667 322° Northwest 270 311 22,000  Level Vancouver Center
06:11PM 50.9000 -126.5333 320° Northwest 270 311 22,000  Level Vancouver Center
06:12PM 50.9667 -126.5833 335° Northwest 270 311 22,000  Level Vancouver Center
06:13PM 51.0167 -126.6667 314° West 270 311 22,000  Level Vancouver Center
06:14PM 51.0667 -126.7167 328° Northwest 270 311 22,000  Level Vancouver Center
06:15PM 51.1333 -126.8000 322° Northwest 270 311 22,000  Level Vancouver Center
06:16PM 51.2000 -126.8667 328° Northwest 270 311 22,000  Level Vancouver Center
06:17PM 51.2667 -126.9167 335° Northwest 270 311 22,000  Level Vancouver Center
06:18PM 51.3333 -127.0000 322° Northwest 270 311 22,000  Level Vancouver Center
06:19PM 51.3833 -127.0667 320° Northwest 270 311 22,000  Level Vancouver Center
06:20PM 51.4500 -127.1167 335° Northwest 270 311 22,000  Level Vancouver Center
06:21PM 51.5167 -127.2000 322° Northwest 270 311 22,000  Level Vancouver Center
06:22PM 51.5833 -127.2667 328° Northwest 270 311 22,000  Level Vancouver Center
06:23PM 51.6333 -127.3500 314° West 270 311 22,000  Level Vancouver Center
06:24PM 51.6833 -127.4000 328° Northwest 270 311 22,000  Level Vancouver Center
06:25PM 51.7500 -127.4667 328° Northwest 270 311 22,000  Level Vancouver Center
06:26PM 51.8167 -127.5500 322° Northwest 270 311 22,000  Level Vancouver Center
06:27PM 51.8667 -127.6167 321° Northwest 270 311 22,000  Level Vancouver Center
06:28PM 51.9333 -127.6667 335° Northwest 270 311 22,000  Level Vancouver Center
06:29PM 52.0000 -127.7500 322° Northwest 270 311 22,000  Level Vancouver Center
06:30PM 52.0667 -127.8167 328° Northwest 270 311 22,000  Level Vancouver Center
06:31PM 52.1167 -127.9000 314° West 270 311 22,000  Level Vancouver Center
06:32PM 52.1833 -127.9667 328° Northwest 270 311 22,000  Level Vancouver Center
06:33PM 52.2333 -128.0167 329° Northwest 270 311 22,000  Level Vancouver Center
06:34PM 52.3000 -128.1167 317° Northwest 270 311 22,000  Level Vancouver Center
06:35PM 52.3667 -128.1667 335° Northwest 270 311 22,000  Level Vancouver Center
06:36PM 52.4333 -128.2667 318° Northwest 270 311 22,000  Level Vancouver Center
06:37PM 52.5000 -128.3167 335° Northwest 270 311 22,000  Level Vancouver Center
06:38PM 52.5333 -128.3833 309° West 270 311 22,000  Level Vancouver Center
06:39PM 52.6000 -128.4667 323° Northwest 270 311 22,000  Level Vancouver Center
06:40PM 52.6667 -128.5333 329° Northwest 270 311 22,000  Level Vancouver Center
06:42PM 52.7667 -128.6333 329° Northwest 280 322 22,000  Level Anchorage Center
06:43PM 52.8167 -128.7000 321° Northwest 270 311 22,000  Level Anchorage Center
06:44PM 52.8833 -128.7667 329° Northwest 270 311 22,000  Level Anchorage Center
06:45PM 52.9500 -128.8500 323° Northwest 270 311 22,000  Level Anchorage Center
06:46PM 53.0000 -128.9167 321° Northwest 280 322 22,000  Level Anchorage Center
06:47PM 53.0667 -129.0000 323° Northwest 270 311 22,000  Level Anchorage Center
06:48PM 53.1333 -129.0667 329° Northwest 270 311 22,000  Level Anchorage Center
06:49PM 53.1833 -129.1500 315° West 270 311 22,000  Level Anchorage Center
06:50PM 53.2500 -129.2167 329° Northwest 270 311 22,000  Level Anchorage Center
06:51PM 53.3167 -129.3000 323° Northwest 270 311 22,000  Level Anchorage Center
06:52PM 53.3667 -129.3667 322° Northwest 270 311 22,000  Level Anchorage Center
06:53PM 53.4333 -129.4500 323° Northwest 280 322 22,000  Level Anchorage Center
06:54PM 53.4833 -129.5167 322° Northwest 270 311 22,000  Level Anchorage Center
06:55PM 53.5500 -129.6000 323° Northwest 270 311 22,000  Level Anchorage Center
06:56PM 53.6167 -129.6667 329° Northwest 270 311 22,000  Level Anchorage Center
06:57PM 53.6667 -129.7500 315° West 270 311 22,000  Level Anchorage Center
06:58PM 53.7333 -129.8167 329° Northwest 270 311 22,000  Level Anchorage Center
06:59PM 53.8000 -129.9000 324° Northwest 270 311 22,000  Level Anchorage Center
07:00PM 53.8500 -129.9667 322° Northwest 270 311 22,000  Level Anchorage Center
07:01PM 53.9167 -130.0500 324° Northwest 270 311 22,000  Level Anchorage Center
07:02PM 53.9667 -130.1333 316° Northwest 270 311 22,000  Level Anchorage Center
07:03PM 54.0667 -130.2833 319° Northwest 270 311 22,000  Level Vancouver Center
07:04PM 54.1167 -130.3500 322° Northwest 270 311 22,000  Level Vancouver Center
07:05PM 54.1667 -130.4167 322° Northwest 270 311 22,000  Level Vancouver Center
07:06PM 54.2333 -130.5167 319° Northwest 270 311 22,000  Level Vancouver Center
07:07PM 54.3000 -130.5833 330° Northwest 270 311 22,000  Level Vancouver Center
07:08PM 54.3500 -130.6667 316° Northwest 270 311 22,000  Level Vancouver Center
07:09PM 54.4000 -130.7333 322° Northwest 270 311 22,000  Level Vancouver Center
07:10PM 54.4667 -130.8333 319° Northwest 270 311 22,000  Level Vancouver Center
07:11PM 54.5333 -130.9000 330° Northwest 270 311 22,000 -300 Level Vancouver Center
07:12PM 54.5833 -130.9667 322° Northwest 270 311 21,500 -900 Descending Vancouver Center
07:13PM 54.6500 -131.0667 319° Northwest 290 334 20,300 -1,140 Descending Vancouver Center
07:14PM 54.6833 -131.0667 360° North 290 334 19,700 -1,260 Descending Anchorage Center
07:15PM 54.7500 -131.1667 319° Northwest 290 334 18,300 -1,440 Descending Anchorage Center
07:16PM 54.8000 -131.2333 322° Northwest 270 311 16,900 -1,500 Descending Anchorage Center
07:17PM 54.8667 -131.3167 324° Northwest 270 311 15,300 -1,680 Descending Anchorage Center
07:19PM 54.9833 -131.4833 321° Northwest 270 311 12,000 -1,500 Descending Anchorage Center
07:20PM 55.0667 -131.6500 311° West 270 311 10,200 -1,320 Descending Vancouver Center
07:21PM 55.1000 -131.6167 30° Northeast 270 311 9,400 -1,200 Descending Anchorage Center
07:22PM 55.1667 -131.6833 330° Northwest 270 311 8,300 -1,020 Descending Anchorage Center
07:23PM 55.2333 -131.7333 337° Northwest 260 299 7,400 -840 Descending Anchorage Center
07:24PM 55.3000 -131.7833 337° Northwest 250 288 6,700 -660 Descending Anchorage Center
07:25PM 55.3667 -131.8500 330° Northwest 250 288 6,100 -360 Descending Anchorage Center
07:26PM 55.4167 -131.9000 330° Northwest 230 265 6,000 -60 Descending Anchorage Center
07:27PM 55.4667 -131.9500 330° Northwest 200 230 6,000 -180 Level Anchorage Center
07:28PM 55.5000 -131.9833 330° Northwest 170 196 5,700 -300 Descending Anchorage Center
07:30PM 55.4251 -131.8414 133° Southeast  Level FlightAware Approximate
07:37PM 55.3541 -131.7112 119° Southeast  Level Estimated
07:38PM 55.3541 -131.7112 119° Southeast  Level Estimated
07:39PM 55.3541 -131.7112 119° Southeast  Level Estimated
07:40PM 55.3541 -131.7112 119° Southeast  Level Estimated
07:41PM 55.3541 -131.7112 119° Southeast  Level Estimated
07:42PM 55.3541 -131.7112 119° Southeast  Level Estimated